createdAt,value
2023-01-25T00:00:43.886Z,94767.92
2023-01-25T00:05:50.620Z,94771.05
2023-01-25T00:10:58.507Z,94766.09
2023-01-25T00:16:07.263Z,94764.13
2023-01-25T00:21:22.792Z,94764.54
2023-01-25T00:26:31.375Z,94760.12
2023-01-25T00:31:57.289Z,94758.19
2023-01-25T00:37:23.672Z,94762.39
2023-01-25T00:42:30.641Z,94761.36
2023-01-25T00:47:37.299Z,94761.00
2023-01-25T00:52:44.069Z,94759.02
2023-01-25T00:57:50.870Z,94761.50
2023-01-25T01:02:58.575Z,94783.32
2023-01-25T01:08:06.513Z,94764.05
2023-01-25T01:13:13.505Z,94771.83
2023-01-25T01:18:20.857Z,94766.38
2023-01-25T01:23:27.678Z,94762.86
2023-01-25T01:28:38.833Z,94766.52
2023-01-25T01:33:45.759Z,94765.48
2023-01-25T01:38:52.648Z,94767.27
2023-01-25T01:43:59.763Z,94781.77
2023-01-25T01:49:25.814Z,94763.92
2023-01-25T01:54:39.070Z,94760.74
2023-01-25T01:59:55.863Z,94763.98
2023-01-25T02:05:07.013Z,94764.81
2023-01-25T02:10:15.537Z,94585.34
2023-01-25T02:15:22.892Z,94765.84
2023-01-25T02:20:52.164Z,94763.17
2023-01-25T02:26:04.790Z,94762.25
2023-01-25T02:31:11.857Z,94760.88
2023-01-25T02:36:28.575Z,94755.73
2023-01-25T02:41:41.876Z,94753.78
2023-01-25T02:46:48.872Z,94741.66
2023-01-25T02:51:59.115Z,94743.04
2023-01-25T02:57:05.836Z,94732.59
2023-01-25T03:02:12.500Z,94728.28
2023-01-25T03:07:19.102Z,94723.52
2023-01-25T03:12:25.890Z,94714.69
2023-01-25T03:17:32.584Z,94722.95
2023-01-25T03:22:39.267Z,94720.34
2023-01-25T03:27:45.954Z,94719.58
2023-01-25T03:32:53.197Z,94712.39
2023-01-25T03:37:59.885Z,94707.16
2023-01-25T03:43:06.568Z,94704.44
2023-01-25T03:48:13.305Z,94701.66
2023-01-25T03:53:33.264Z,94693.98
2023-01-25T03:58:41.344Z,94695.73
2023-01-25T04:03:48.151Z,94691.66
2023-01-25T04:08:54.863Z,94690.91
2023-01-25T04:14:01.580Z,94677.97
2023-01-25T04:19:08.163Z,94676.41
2023-01-25T04:24:14.869Z,94676.77
2023-01-25T04:29:28.693Z,94589.20
2023-01-25T04:34:29.935Z,94662.45
2023-01-25T04:39:36.589Z,94663.94
2023-01-25T04:44:43.291Z,94668.92
2023-01-25T04:49:49.967Z,94656.17
2023-01-25T04:54:56.635Z,94675.39
2023-01-25T05:00:04.491Z,94662.11
2023-01-25T05:05:11.890Z,94652.11
2023-01-25T05:10:18.723Z,94659.12
2023-01-25T05:15:25.382Z,94661.67
2023-01-25T05:20:32.168Z,94669.18
2023-01-25T05:25:56.356Z,94662.56
2023-01-25T05:31:07.385Z,94657.50
2023-01-25T05:36:14.074Z,94659.88
2023-01-25T05:41:20.851Z,94655.80
2023-01-25T05:46:29.391Z,94657.05
2023-01-25T05:51:36.128Z,94652.63
2023-01-25T05:56:42.888Z,94647.78
2023-01-25T06:01:49.552Z,94651.63
2023-01-25T06:06:56.676Z,94644.61
2023-01-25T06:12:04.348Z,94648.09
2023-01-25T06:17:11.635Z,94654.70
2023-01-25T06:22:18.487Z,94660.67
2023-01-25T06:27:25.219Z,94668.36
2023-01-25T06:32:36.247Z,94674.16
2023-01-25T06:37:42.952Z,94673.30
2023-01-25T06:42:49.759Z,94676.64
2023-01-25T06:47:56.478Z,94680.08
2023-01-25T06:53:03.123Z,94687.05
2023-01-25T06:58:09.835Z,94697.20
2023-01-25T07:03:16.518Z,94695.73
2023-01-25T07:08:24.951Z,94704.85
2023-01-25T07:13:34.141Z,94703.64
2023-01-25T07:18:40.814Z,94708.70
2023-01-25T07:23:47.533Z,94710.28
2023-01-25T07:28:55.323Z,94707.67
2023-01-25T07:34:02.029Z,94705.97
2023-01-25T07:39:10.446Z,94696.20
2023-01-25T07:44:17.133Z,94690.70
2023-01-25T07:49:23.935Z,94673.99
2023-01-25T07:54:30.569Z,94673.19
2023-01-25T07:59:37.282Z,94659.63
2023-01-25T08:04:44.828Z,94662.67
2023-01-25T08:09:51.625Z,94662.04
2023-01-25T08:14:58.336Z,94660.23
2023-01-25T08:20:06.334Z,94658.64
2023-01-25T08:25:13.480Z,94659.73
2023-01-25T08:30:20.404Z,94652.96
2023-01-25T08:35:27.547Z,94655.80
2023-01-25T08:40:36.989Z,94645.73
2023-01-25T08:45:42.411Z,94651.45
2023-01-25T08:50:49.700Z,94651.23
2023-01-25T08:55:56.373Z,94651.30
2023-01-25T09:01:09.273Z,94649.20
2023-01-25T09:06:16.752Z,94651.78
2023-01-25T09:11:24.939Z,94655.11
2023-01-25T09:16:32.209Z,94653.31
2023-01-25T09:21:38.884Z,94655.09
2023-01-25T09:26:55.758Z,94652.31
2023-01-25T09:31:54.008Z,94658.42
2023-01-25T09:37:00.718Z,94658.62
2023-01-25T09:42:33.044Z,94648.36
2023-01-25T09:47:59.514Z,94650.61
2023-01-25T09:53:35.391Z,94644.53
2023-01-25T09:58:46.012Z,94639.50
2023-01-25T10:04:17.657Z,94630.55
2023-01-25T10:09:45.405Z,94623.60
2023-01-25T10:14:53.064Z,94620.42
2023-01-25T10:20:25.230Z,94616.39
2023-01-25T10:25:39.239Z,94607.52
2023-01-25T10:31:20.217Z,94591.04
2023-01-25T10:36:31.547Z,94582.29
2023-01-25T10:42:02.948Z,94575.22
2023-01-25T10:47:29.349Z,94588.78
2023-01-25T10:52:39.156Z,94561.73
2023-01-25T10:57:51.879Z,94561.87
2023-01-25T11:02:58.631Z,94547.55
2023-01-25T11:08:38.155Z,94549.73
2023-01-25T11:13:45.250Z,94540.95
2023-01-25T11:18:55.478Z,94524.05
2023-01-25T11:24:12.498Z,94520.47
2023-01-25T11:29:24.340Z,94511.31
2023-01-25T11:34:32.478Z,94510.06
2023-01-25T11:39:52.346Z,94505.14
2023-01-25T11:45:18.384Z,94499.53
2023-01-25T11:50:39.202Z,94488.78
2023-01-25T11:56:11.158Z,94474.91
2023-01-25T12:01:41.520Z,94465.60
2023-01-25T12:07:10.809Z,94460.39
2023-01-25T12:12:42.538Z,94457.63
2023-01-25T12:18:30.747Z,94443.91
2023-01-25T12:23:50.658Z,94438.16
2023-01-25T12:29:07.429Z,94440.64
2023-01-25T12:34:37.122Z,94432.62
2023-01-25T12:40:05.868Z,94417.03
2023-01-25T12:45:22.813Z,94421.13
2023-01-25T12:50:46.020Z,94406.87
2023-01-25T12:55:53.924Z,94395.62
2023-01-25T13:01:24.221Z,94385.80
2023-01-25T13:06:53.800Z,94387.08
2023-01-25T13:12:01.011Z,94385.30
2023-01-25T13:17:34.791Z,94376.45
2023-01-25T13:22:55.281Z,94375.77
2023-01-25T13:28:22.358Z,94368.48
2023-01-25T13:33:37.002Z,94360.17
2023-01-25T13:38:43.747Z,94361.63
2023-01-25T13:43:54.174Z,94357.88
2023-01-25T13:49:04.568Z,94351.57
2023-01-25T13:54:15.691Z,94351.70
2023-01-25T13:59:29.982Z,94346.25
2023-01-25T14:04:36.791Z,94346.03
2023-01-25T14:09:45.493Z,94341.55
2023-01-25T14:14:52.199Z,94338.72
2023-01-25T14:19:58.983Z,94335.04
2023-01-25T14:25:25.207Z,94341.09
2023-01-25T14:30:34.692Z,94339.00
2023-01-25T14:35:54.637Z,94340.56
2023-01-25T14:41:11.475Z,94345.67
2023-01-25T14:46:30.860Z,94345.03
2023-01-25T14:51:58.503Z,94334.88
2023-01-25T14:57:08.289Z,94333.36
2023-01-25T15:02:22.121Z,94331.99
2023-01-25T15:07:50.741Z,94331.91
2023-01-25T15:13:16.897Z,94328.44
2023-01-25T15:18:51.982Z,94324.27
2023-01-25T15:24:05.778Z,94318.92
2023-01-25T15:29:21.142Z,94313.45
2023-01-25T15:34:33.527Z,94314.70
2023-01-25T15:39:40.335Z,94312.72
2023-01-25T15:44:46.970Z,94319.61
2023-01-25T15:49:54.065Z,94317.80
2023-01-25T15:55:02.168Z,94316.50
2023-01-25T16:00:18.097Z,94313.34
2023-01-25T16:05:25.266Z,94313.67
2023-01-25T16:10:33.687Z,94312.72
2023-01-25T16:15:43.118Z,94309.03
2023-01-25T16:20:50.636Z,94314.39
2023-01-25T16:25:58.203Z,94313.25
2023-01-25T16:31:05.043Z,94305.00
2023-01-25T16:36:21.847Z,94310.34
2023-01-25T16:41:28.801Z,94305.80
2023-01-25T16:46:36.469Z,94299.96
2023-01-25T16:51:44.943Z,94294.50
2023-01-25T16:56:54.776Z,94299.72
2023-01-25T17:02:01.648Z,94293.33
2023-01-25T17:07:10.244Z,94292.83
2023-01-25T17:12:17.118Z,94295.56
2023-01-25T17:17:24.538Z,94295.42
2023-01-25T17:22:33.046Z,94285.75
2023-01-25T17:27:39.846Z,94280.98
2023-01-25T17:32:46.775Z,94274.52
2023-01-25T17:37:56.433Z,94276.69
2023-01-25T17:43:03.646Z,94274.30
2023-01-25T17:48:11.564Z,94271.23
2023-01-25T17:53:18.485Z,94272.20
2023-01-25T17:58:25.423Z,94267.66
2023-01-25T18:03:34.715Z,94262.28
2023-01-25T18:08:43.369Z,94263.86
2023-01-25T18:13:57.178Z,94259.89
2023-01-25T18:19:03.066Z,94249.90
2023-01-25T18:24:36.623Z,94246.56
2023-01-25T18:29:59.342Z,94239.02
2023-01-25T18:35:06.829Z,94228.20
2023-01-25T18:40:15.884Z,94223.30
2023-01-25T18:45:24.353Z,94214.88
2023-01-25T18:50:31.395Z,94207.47
2023-01-25T18:55:39.277Z,94200.06
2023-01-25T19:00:45.979Z,93999.14
2023-01-25T19:05:56.132Z,94178.59
2023-01-25T19:11:09.701Z,94177.87
2023-01-25T19:16:20.082Z,94173.39
2023-01-25T19:21:28.917Z,94172.04
2023-01-25T19:26:36.210Z,94164.84
2023-01-25T19:31:43.027Z,94156.06
2023-01-25T19:36:54.119Z,94140.19
2023-01-25T19:42:00.943Z,94138.30
2023-01-25T19:47:07.619Z,94139.75
2023-01-25T19:52:14.368Z,94132.83
2023-01-25T19:57:21.066Z,94134.74
2023-01-25T20:02:28.410Z,94116.57
2023-01-25T20:07:35.192Z,94114.55
2023-01-25T20:12:41.895Z,94111.35
2023-01-25T20:17:48.520Z,94104.38
2023-01-25T20:22:56.234Z,94101.46
2023-01-25T20:28:03.323Z,94095.33
2023-01-25T20:33:10.291Z,94086.14
2023-01-25T20:38:17.003Z,94087.23
2023-01-25T20:43:23.705Z,94081.92
2023-01-25T20:48:36.472Z,94073.16
2023-01-25T20:53:44.411Z,94064.81
2023-01-25T20:58:53.168Z,94054.05
2023-01-25T21:04:00.407Z,94044.25
2023-01-25T21:09:07.497Z,94046.50
2023-01-25T21:14:14.348Z,94046.77
2023-01-25T21:19:20.942Z,94034.52
2023-01-25T21:24:27.928Z,94030.70
2023-01-25T21:29:35.082Z,94014.77
2023-01-25T21:34:42.149Z,94004.84
2023-01-25T21:39:49.739Z,94010.55
2023-01-25T21:45:13.967Z,94001.13
2023-01-25T21:50:37.472Z,94002.63
2023-01-25T21:55:43.864Z,93996.14
2023-01-25T22:00:50.596Z,93981.56
2023-01-25T22:05:57.685Z,93973.91
2023-01-25T22:11:07.685Z,93969.41
2023-01-25T22:16:15.426Z,93961.39
2023-01-25T22:21:30.049Z,93954.67
2023-01-25T22:27:02.104Z,93947.34
2023-01-25T22:32:08.897Z,93940.63
2023-01-25T22:37:15.911Z,93935.50
2023-01-25T22:42:22.785Z,93938.67
2023-01-25T22:47:29.959Z,93926.64
2023-01-25T22:52:37.059Z,93916.52
2023-01-25T22:57:43.846Z,93914.94
2023-01-25T23:02:50.754Z,93906.50
2023-01-25T23:07:57.741Z,93906.84
2023-01-25T23:13:04.486Z,93897.69
2023-01-25T23:18:29.811Z,93888.56
2023-01-25T23:23:37.268Z,93886.76
2023-01-25T23:28:46.137Z,93882.74
2023-01-25T23:33:56.420Z,93873.11
2023-01-25T23:39:04.037Z,93866.87
2023-01-25T23:44:11.041Z,93857.45
2023-01-25T23:49:18.132Z,93850.36
2023-01-25T23:54:26.603Z,93846.94
2023-01-25T23:59:35.082Z,93843.70
